Aeroporto :







RITROVATECI SU...

 
LOGIN :

Iscrizione | Disclaimer

   EN    FR    IT 

 









Sommario :    VFR   VFR Marginale   IFR   IFR Intensivo   IFR Molto Intensivo
Visibilità : 
Base nubi : 
>= 8 km
>= 3000ft
5 / 8 km
1000 / 3000 ft
1500m / 5 km
500 / 1000 ft
800 / 1500m
200 / 500 ft
< 800m
< 200 ft
Simboli :   Temporali  Nebbia  Neve Forte  Precipitazioni Forti  Vento > 20 kt






- Altitudine del aeroporto : 586 ft
- Codice IATA : YRJ


CYRJ - Roberval

ULTIMO METAR :
  • 151716Z 29019G28KT 12SM DRSN SCT030 SCT054 BKN100 BKN140 M05/M11 A2975 RMK SC4CU1AC2AC1 CU TR SLP088

METARs OBSOLETI :
  • 151700Z 29020G29KT 250V320 5SM -SHSN DRSN SCT032 SCT054 BKN100 BKN140 M04/M10 A2974 RMK SC4CU1AC2AC1 CU TR SLP084
  • 151600Z 32013G20KT 12SM SCT020 BKN100 BKN120 M04/M06 A2973 RMK SC4AC3AC1 AC TR SLP080
  • 151550Z 33014G24KT 1/4SM -SHSN BLSN VV004 M04/M06 A2972 RMK BLSN8 SLP078
  • 151537Z 32018G27KT 250V350 5SM -SHSN BLSN BKN032 BKN100 BKN120 M02/M06 A2972 RMK SC5AC2AC1 AC TR CVC CLD EMBD PRESRR SLP078
  • 151532Z 27010G15KT 25SM SCT042 BKN100 BKN140 M01/M04 A2971 RMK SC4AC2AC1 SLP073
  • 151507Z 28010G19KT 5SM -SN DRSN BKN030 BKN100 M02/M04 A2971 RMK SC5AC2 SLP073

TAF AMD TAF CYRJ
Valido dal 15 a 15 ore il 16 a 01 ore UTC


151510Z 1515/1601 28015G25KT 1/2SM SHSN VV008
TEMPO 1515/1519 6SM -SHSN BKN030 OVC100
FM151900 30015G25KT P6SM FEW020 BKN030
TEMPO 1519/1601 2SM -SHSN BKN020 OVC030 RMK NXT FCST BY 152000Z



MetMap, La meteo Aeronautica in un colpo d'occhio ! - Copyright ORBIFLY Dicembre 2007 - Disclaimer

ORBIFLY MET'MAP TEAM :

Programmazione e sviluppo : Alexandra Zaïnal
Concezione e sviluppo : Baudouin d'Aumeries
Co-Programmazione e sviluppo : Marc-Olivier Méhu
Supporto tecnico e logistico : Manuel Goepfert
Aiuto per la traduzione : Arnaldo La Scala

Contatto : metmap@orbifly.com




FONTI E CREDITI :

   NOAA